sensor_id;sensor_type;location;lat;lon;timestamp;temperature;humidity
70336;SHT31;57756;47.408;18.940;2023-02-28T00:02:18;0.59;75.80
70336;SHT31;57756;47.408;18.940;2023-02-28T00:04:43;0.61;74.81
70336;SHT31;57756;47.408;18.940;2023-02-28T00:07:09;0.59;73.51
70336;SHT31;57756;47.408;18.940;2023-02-28T00:09:34;0.57;73.67
70336;SHT31;57756;47.408;18.940;2023-02-28T00:12:00;0.58;72.93
70336;SHT31;57756;47.408;18.940;2023-02-28T00:14:30;0.55;73.30
70336;SHT31;57756;47.408;18.940;2023-02-28T00:16:55;0.58;73.15
70336;SHT31;57756;47.408;18.940;2023-02-28T00:19:21;0.58;73.86
70336;SHT31;57756;47.408;18.940;2023-02-28T00:21:46;0.64;74.22
70336;SHT31;57756;47.408;18.940;2023-02-28T00:24:12;0.65;74.10
70336;SHT31;57756;47.408;18.940;2023-02-28T00:26:37;0.66;73.37
70336;SHT31;57756;47.408;18.940;2023-02-28T00:29:03;0.72;74.51
70336;SHT31;57756;47.408;18.940;2023-02-28T00:31:28;0.72;74.41
70336;SHT31;57756;47.408;18.940;2023-02-28T00:33:54;0.76;73.71
70336;SHT31;57756;47.408;18.940;2023-02-28T00:36:19;0.79;73.53
70336;SHT31;57756;47.408;18.940;2023-02-28T00:38:44;0.79;73.88
70336;SHT31;57756;47.408;18.940;2023-02-28T00:41:10;0.76;74.25
70336;SHT31;57756;47.408;18.940;2023-02-28T00:43:37;0.80;74.27
70336;SHT31;57756;47.408;18.940;2023-02-28T00:46:03;0.82;74.16
70336;SHT31;57756;47.408;18.940;2023-02-28T00:48:29;0.82;73.26
70336;SHT31;57756;47.408;18.940;2023-02-28T00:50:54;0.80;74.03
70336;SHT31;57756;47.408;18.940;2023-02-28T00:53:20;0.86;73.81
70336;SHT31;57756;47.408;18.940;2023-02-28T00:55:45;0.83;73.93
70336;SHT31;57756;47.408;18.940;2023-02-28T00:58:11;0.82;73.13
70336;SHT31;57756;47.408;18.940;2023-02-28T01:00:36;0.82;72.98
70336;SHT31;57756;47.408;18.940;2023-02-28T01:03:02;0.82;71.21
70336;SHT31;57756;47.408;18.940;2023-02-28T01:05:27;0.83;72.47
70336;SHT31;57756;47.408;18.940;2023-02-28T01:07:53;0.85;73.34
70336;SHT31;57756;47.408;18.940;2023-02-28T01:10:18;0.85;73.13
70336;SHT31;57756;47.408;18.940;2023-02-28T01:12:46;0.86;73.39
70336;SHT31;57756;47.408;18.940;2023-02-28T01:15:11;0.86;74.15
70336;SHT31;57756;47.408;18.940;2023-02-28T01:17:37;0.87;74.52
70336;SHT31;57756;47.408;18.940;2023-02-28T01:20:03;0.89;75.10
70336;SHT31;57756;47.408;18.940;2023-02-28T01:22:28;0.90;74.87
70336;SHT31;57756;47.408;18.940;2023-02-28T01:24:54;0.89;74.55
70336;SHT31;57756;47.408;18.940;2023-02-28T01:27:19;0.90;74.63
70336;SHT31;57756;47.408;18.940;2023-02-28T01:29:45;0.92;75.30
70336;SHT31;57756;47.408;18.940;2023-02-28T01:32:10;0.92;76.31
70336;SHT31;57756;47.408;18.940;2023-02-28T01:34:36;0.87;76.75
70336;SHT31;57756;47.408;18.940;2023-02-28T01:37:01;0.89;76.24
70336;SHT31;57756;47.408;18.940;2023-02-28T01:39:28;0.90;75.34
70336;SHT31;57756;47.408;18.940;2023-02-28T01:41:54;0.89;75.53
70336;SHT31;57756;47.408;18.940;2023-02-28T01:44:58;0.83;73.02
70336;SHT31;57756;47.408;18.940;2023-02-28T01:47:28;0.85;72.69
70336;SHT31;57756;47.408;18.940;2023-02-28T01:49:54;0.89;73.81
70336;SHT31;57756;47.408;18.940;2023-02-28T01:52:20;0.90;74.44
70336;SHT31;57756;47.408;18.940;2023-02-28T01:54:51;0.90;73.28
70336;SHT31;57756;47.408;18.940;2023-02-28T01:57:21;0.93;73.98
70336;SHT31;57756;47.408;18.940;2023-02-28T01:59:55;0.90;74.44
70336;SHT31;57756;47.408;18.940;2023-02-28T02:02:24;0.92;75.80
70336;SHT31;57756;47.408;18.940;2023-02-28T02:07:18;0.96;76.41
70336;SHT31;57756;47.408;18.940;2023-02-28T02:09:44;0.95;76.58
70336;SHT31;57756;47.408;18.940;2023-02-28T02:15:18;0.97;75.09
70336;SHT31;57756;47.408;18.940;2023-02-28T02:17:48;0.97;74.67
70336;SHT31;57756;47.408;18.940;2023-02-28T02:37:15;0.99;75.54
70336;SHT31;57756;47.408;18.940;2023-02-28T02:42:23;1.00;74.89
70336;SHT31;57756;47.408;18.940;2023-02-28T02:45:07;1.00;75.27
70336;SHT31;57756;47.408;18.940;2023-02-28T02:47:35;0.99;75.14
70336;SHT31;57756;47.408;18.940;2023-02-28T02:50:05;0.97;75.14
70336;SHT31;57756;47.408;18.940;2023-02-28T02:52:45;0.99;74.09
70336;SHT31;57756;47.408;18.940;2023-02-28T02:55:14;0.99;73.90
70336;SHT31;57756;47.408;18.940;2023-02-28T03:00:12;1.01;74.06
70336;SHT31;57756;47.408;18.940;2023-02-28T03:02:40;1.00;75.31
70336;SHT31;57756;47.408;18.940;2023-02-28T03:05:19;1.04;74.87
70336;SHT31;57756;47.408;18.940;2023-02-28T03:07:45;1.01;74.57
70336;SHT31;57756;47.408;18.940;2023-02-28T03:10:39;1.04;74.60
70336;SHT31;57756;47.408;18.940;2023-02-28T03:16:08;1.00;73.91
70336;SHT31;57756;47.408;18.940;2023-02-28T03:27:27;1.04;73.35
70336;SHT31;57756;47.408;18.940;2023-02-28T03:30:02;0.99;70.11
70336;SHT31;57756;47.408;18.940;2023-02-28T03:35:06;0.97;70.30
70336;SHT31;57756;47.408;18.940;2023-02-28T03:37:35;0.99;70.25
70336;SHT31;57756;47.408;18.940;2023-02-28T03:40:13;1.01;71.50
70336;SHT31;57756;47.408;18.940;2023-02-28T03:42:42;1.06;71.01
70336;SHT31;57756;47.408;18.940;2023-02-28T03:45:24;1.06;71.38
70336;SHT31;57756;47.408;18.940;2023-02-28T03:47:53;1.04;70.80
70336;SHT31;57756;47.408;18.940;2023-02-28T03:52:52;1.06;70.28
70336;SHT31;57756;47.408;18.940;2023-02-28T03:55:19;1.14;69.67
70336;SHT31;57756;47.408;18.940;2023-02-28T04:00:56;1.04;70.17
70336;SHT31;57756;47.408;18.940;2023-02-28T04:03:22;1.07;70.33
70336;SHT31;57756;47.408;18.940;2023-02-28T04:05:54;1.07;70.75
70336;SHT31;57756;47.408;18.940;2023-02-28T04:08:20;1.08;70.02
70336;SHT31;57756;47.408;18.940;2023-02-28T04:10:53;1.07;70.38
70336;SHT31;57756;47.408;18.940;2023-02-28T04:13:20;1.04;69.99
70336;SHT31;57756;47.408;18.940;2023-02-28T04:15:46;1.06;70.01
70336;SHT31;57756;47.408;18.940;2023-02-28T04:18:11;0.99;70.39
70336;SHT31;57756;47.408;18.940;2023-02-28T04:20:37;1.00;70.93
70336;SHT31;57756;47.408;18.940;2023-02-28T04:23:02;1.01;70.21
70336;SHT31;57756;47.408;18.940;2023-02-28T04:25:28;1.00;70.81
70336;SHT31;57756;47.408;18.940;2023-02-28T04:27:53;1.00;70.53
70336;SHT31;57756;47.408;18.940;2023-02-28T04:30:19;1.01;70.28
70336;SHT31;57756;47.408;18.940;2023-02-28T04:32:44;1.03;70.42
70336;SHT31;57756;47.408;18.940;2023-02-28T04:35:10;1.01;70.44
70336;SHT31;57756;47.408;18.940;2023-02-28T04:37:35;1.01;71.06
70336;SHT31;57756;47.408;18.940;2023-02-28T04:40:02;1.00;70.55
70336;SHT31;57756;47.408;18.940;2023-02-28T04:42:28;1.00;70.17
70336;SHT31;57756;47.408;18.940;2023-02-28T04:45:04;1.00;70.32
70336;SHT31;57756;47.408;18.940;2023-02-28T04:47:29;1.01;70.91
70336;SHT31;57756;47.408;18.940;2023-02-28T04:49:55;0.93;70.29
70336;SHT31;57756;47.408;18.940;2023-02-28T04:52:20;0.92;70.35
70336;SHT31;57756;47.408;18.940;2023-02-28T04:54:46;0.92;70.44
70336;SHT31;57756;47.408;18.940;2023-02-28T04:57:11;0.92;70.57
70336;SHT31;57756;47.408;18.940;2023-02-28T04:59:37;0.92;70.46
70336;SHT31;57756;47.408;18.940;2023-02-28T05:02:02;0.87;70.86
70336;SHT31;57756;47.408;18.940;2023-02-28T05:04:35;0.92;70.45
70336;SHT31;57756;47.408;18.940;2023-02-28T05:07:02;0.93;70.27
70336;SHT31;57756;47.408;18.940;2023-02-28T05:09:28;0.92;70.00
70336;SHT31;57756;47.408;18.940;2023-02-28T05:11:54;0.95;70.53
70336;SHT31;57756;47.408;18.940;2023-02-28T05:14:19;0.95;70.54
70336;SHT31;57756;47.408;18.940;2023-02-28T05:16:45;0.92;70.61
70336;SHT31;57756;47.408;18.940;2023-02-28T05:19:10;0.92;70.61
70336;SHT31;57756;47.408;18.940;2023-02-28T05:21:50;0.90;70.47
70336;SHT31;57756;47.408;18.940;2023-02-28T05:24:15;0.90;70.10
70336;SHT31;57756;47.408;18.940;2023-02-28T05:26:49;0.96;70.11
70336;SHT31;57756;47.408;18.940;2023-02-28T05:29:15;0.96;72.16
70336;SHT31;57756;47.408;18.940;2023-02-28T05:31:41;0.99;71.47
70336;SHT31;57756;47.408;18.940;2023-02-28T05:34:06;0.99;71.79
70336;SHT31;57756;47.408;18.940;2023-02-28T05:36:32;1.01;71.76
70336;SHT31;57756;47.408;18.940;2023-02-28T05:38:58;1.01;71.86
70336;SHT31;57756;47.408;18.940;2023-02-28T05:41:24;1.00;73.29
70336;SHT31;57756;47.408;18.940;2023-02-28T05:43:51;1.00;72.54
70336;SHT31;57756;47.408;18.940;2023-02-28T05:46:16;1.00;73.27
70336;SHT31;57756;47.408;18.940;2023-02-28T05:48:45;1.04;72.88
70336;SHT31;57756;47.408;18.940;2023-02-28T05:51:11;1.04;72.36
70336;SHT31;57756;47.408;18.940;2023-02-28T05:53:36;1.08;72.44
70336;SHT31;57756;47.408;18.940;2023-02-28T05:56:02;1.13;72.76
70336;SHT31;57756;47.408;18.940;2023-02-28T05:58:28;1.14;72.20
70336;SHT31;57756;47.408;18.940;2023-02-28T06:00:57;1.22;72.29
70336;SHT31;57756;47.408;18.940;2023-02-28T06:03:23;1.19;73.23
70336;SHT31;57756;47.408;18.940;2023-02-28T06:05:49;1.20;72.91
70336;SHT31;57756;47.408;18.940;2023-02-28T06:08:15;1.20;72.92
70336;SHT31;57756;47.408;18.940;2023-02-28T06:10:41;1.22;72.06
70336;SHT31;57756;47.408;18.940;2023-02-28T06:13:06;1.28;70.89
70336;SHT31;57756;47.408;18.940;2023-02-28T06:15:32;1.31;70.90
70336;SHT31;57756;47.408;18.940;2023-02-28T06:17:58;1.38;70.55
70336;SHT31;57756;47.408;18.940;2023-02-28T06:20:25;1.41;70.59
70336;SHT31;57756;47.408;18.940;2023-02-28T06:22:57;1.37;71.34
70336;SHT31;57756;47.408;18.940;2023-02-28T06:25:27;1.43;70.40
70336;SHT31;57756;47.408;18.940;2023-02-28T06:27:53;1.48;70.80
70336;SHT31;57756;47.408;18.940;2023-02-28T06:30:20;1.54;71.23
70336;SHT31;57756;47.408;18.940;2023-02-28T06:32:50;1.55;70.00
70336;SHT31;57756;47.408;18.940;2023-02-28T06:35:16;1.61;69.81
70336;SHT31;57756;47.408;18.940;2023-02-28T06:37:41;1.66;69.79
70336;SHT31;57756;47.408;18.940;2023-02-28T06:40:09;1.68;68.40
70336;SHT31;57756;47.408;18.940;2023-02-28T06:42:35;1.76;70.10
70336;SHT31;57756;47.408;18.940;2023-02-28T06:45:01;1.76;68.87
70336;SHT31;57756;47.408;18.940;2023-02-28T06:47:30;1.85;69.72
70336;SHT31;57756;47.408;18.940;2023-02-28T06:49:56;1.86;68.36
70336;SHT31;57756;47.408;18.940;2023-02-28T06:52:21;1.95;69.26
70336;SHT31;57756;47.408;18.940;2023-02-28T06:54:47;1.99;68.72
70336;SHT31;57756;47.408;18.940;2023-02-28T06:57:25;2.07;67.22
70336;SHT31;57756;47.408;18.940;2023-02-28T06:59:52;2.14;66.49
70336;SHT31;57756;47.408;18.940;2023-02-28T07:02:17;2.28;68.34
70336;SHT31;57756;47.408;18.940;2023-02-28T07:04:43;2.45;66.62
70336;SHT31;57756;47.408;18.940;2023-02-28T07:07:09;2.66;66.90
70336;SHT31;57756;47.408;18.940;2023-02-28T07:09:35;2.96;66.65
70336;SHT31;57756;47.408;18.940;2023-02-28T07:12:00;3.20;65.33
70336;SHT31;57756;47.408;18.940;2023-02-28T07:14:26;3.71;64.24
70336;SHT31;57756;47.408;18.940;2023-02-28T07:16:51;4.07;62.77
70336;SHT31;57756;47.408;18.940;2023-02-28T07:19:17;4.39;61.31
70336;SHT31;57756;47.408;18.940;2023-02-28T07:21:42;4.44;60.24
70336;SHT31;57756;47.408;18.940;2023-02-28T07:24:08;4.40;58.55
70336;SHT31;57756;47.408;18.940;2023-02-28T07:26:33;4.61;58.89
70336;SHT31;57756;47.408;18.940;2023-02-28T07:29:02;4.65;58.89
70336;SHT31;57756;47.408;18.940;2023-02-28T07:31:27;4.72;58.41
70336;SHT31;57756;47.408;18.940;2023-02-28T07:33:53;4.62;59.25
70336;SHT31;57756;47.408;18.940;2023-02-28T07:36:19;4.30;58.04
70336;SHT31;57756;47.408;18.940;2023-02-28T07:38:46;4.05;59.27
70336;SHT31;57756;47.408;18.940;2023-02-28T07:41:20;4.29;60.39
70336;SHT31;57756;47.408;18.940;2023-02-28T07:43:46;4.39;58.33
70336;SHT31;57756;47.408;18.940;2023-02-28T07:46:14;4.43;58.04
70336;SHT31;57756;47.408;18.940;2023-02-28T07:48:40;4.72;59.68
70336;SHT31;57756;47.408;18.940;2023-02-28T07:51:07;4.75;57.85
70336;SHT31;57756;47.408;18.940;2023-02-28T07:53:32;4.56;57.22
70336;SHT31;57756;47.408;18.940;2023-02-28T07:55:59;4.56;58.14
70336;SHT31;57756;47.408;18.940;2023-02-28T07:58:27;4.51;58.87
70336;SHT31;57756;47.408;18.940;2023-02-28T08:00:53;4.47;57.94
70336;SHT31;57756;47.408;18.940;2023-02-28T08:03:20;4.46;59.40
70336;SHT31;57756;47.408;18.940;2023-02-28T08:05:46;4.34;58.54
70336;SHT31;57756;47.408;18.940;2023-02-28T08:08:11;4.33;60.51
70336;SHT31;57756;47.408;18.940;2023-02-28T08:10:37;4.26;60.52
70336;SHT31;57756;47.408;18.940;2023-02-28T08:13:03;4.24;60.08
70336;SHT31;57756;47.408;18.940;2023-02-28T08:15:28;4.26;59.60
70336;SHT31;57756;47.408;18.940;2023-02-28T08:17:54;4.36;60.98
70336;SHT31;57756;47.408;18.940;2023-02-28T08:20:21;4.47;59.64
70336;SHT31;57756;47.408;18.940;2023-02-28T08:22:47;4.46;60.28
70336;SHT31;57756;47.408;18.940;2023-02-28T08:25:12;4.57;58.81
70336;SHT31;57756;47.408;18.940;2023-02-28T08:27:38;4.68;59.19
70336;SHT31;57756;47.408;18.940;2023-02-28T08:30:04;4.68;60.23
70336;SHT31;57756;47.408;18.940;2023-02-28T08:32:29;4.62;58.74
70336;SHT31;57756;47.408;18.940;2023-02-28T08:34:55;4.87;59.86
70336;SHT31;57756;47.408;18.940;2023-02-28T08:37:20;4.81;59.32
70336;SHT31;57756;47.408;18.940;2023-02-28T08:39:46;4.61;58.19
70336;SHT31;57756;47.408;18.940;2023-02-28T08:42:11;4.46;58.59
70336;SHT31;57756;47.408;18.940;2023-02-28T08:44:37;4.77;57.91
70336;SHT31;57756;47.408;18.940;2023-02-28T08:47:03;5.00;58.70
70336;SHT31;57756;47.408;18.940;2023-02-28T08:49:28;5.43;56.82
70336;SHT31;57756;47.408;18.940;2023-02-28T08:51:54;5.58;56.52
70336;SHT31;57756;47.408;18.940;2023-02-28T08:54:20;5.57;57.00
70336;SHT31;57756;47.408;18.940;2023-02-28T08:56:46;5.48;55.86
70336;SHT31;57756;47.408;18.940;2023-02-28T08:59:13;5.58;56.42
70336;SHT31;57756;47.408;18.940;2023-02-28T09:01:38;5.95;58.26
70336;SHT31;57756;47.408;18.940;2023-02-28T09:04:06;6.03;55.28
70336;SHT31;57756;47.408;18.940;2023-02-28T09:06:34;6.19;55.69
70336;SHT31;57756;47.408;18.940;2023-02-28T09:08:59;5.94;54.96
70336;SHT31;57756;47.408;18.940;2023-02-28T09:11:27;6.22;54.88
70336;SHT31;57756;47.408;18.940;2023-02-28T09:13:53;6.26;54.91
70336;SHT31;57756;47.408;18.940;2023-02-28T09:16:21;6.51;54.50
70336;SHT31;57756;47.408;18.940;2023-02-28T09:18:47;6.51;54.00
70336;SHT31;57756;47.408;18.940;2023-02-28T09:21:15;6.89;55.25
70336;SHT31;57756;47.408;18.940;2023-02-28T09:23:42;6.76;53.55
70336;SHT31;57756;47.408;18.940;2023-02-28T09:26:13;7.05;54.45
70336;SHT31;57756;47.408;18.940;2023-02-28T09:28:39;6.81;53.05
70336;SHT31;57756;47.408;18.940;2023-02-28T09:31:06;7.05;54.27
70336;SHT31;57756;47.408;18.940;2023-02-28T09:33:31;7.30;54.39
70336;SHT31;57756;47.408;18.940;2023-02-28T09:36:00;7.50;54.21
70336;SHT31;57756;47.408;18.940;2023-02-28T09:38:26;7.60;55.09
70336;SHT31;57756;47.408;18.940;2023-02-28T09:40:56;7.20;52.40
70336;SHT31;57756;47.408;18.940;2023-02-28T09:43:24;7.30;52.51
70336;SHT31;57756;47.408;18.940;2023-02-28T09:46:16;6.60;53.15
70336;SHT31;57756;47.408;18.940;2023-02-28T09:48:45;6.92;53.44
70336;SHT31;57756;47.408;18.940;2023-02-28T09:51:33;7.46;53.47
70336;SHT31;57756;47.408;18.940;2023-02-28T09:54:00;7.70;53.07
70336;SHT31;57756;47.408;18.940;2023-02-28T09:56:32;8.11;51.96
70336;SHT31;57756;47.408;18.940;2023-02-28T09:59:02;8.97;53.27
70336;SHT31;57756;47.408;18.940;2023-02-28T10:04:39;9.29;51.64
70336;SHT31;57756;47.408;18.940;2023-02-28T10:07:18;8.43;50.10
70336;SHT31;57756;47.408;18.940;2023-02-28T10:09:51;8.04;50.91
70336;SHT31;57756;47.408;18.940;2023-02-28T10:12:19;8.16;51.45
70336;SHT31;57756;47.408;18.940;2023-02-28T10:14:47;9.17;51.47
70336;SHT31;57756;47.408;18.940;2023-02-28T10:17:24;8.49;50.70
70336;SHT31;57756;47.408;18.940;2023-02-28T10:20:02;8.63;51.08
70336;SHT31;57756;47.408;18.940;2023-02-28T10:22:53;8.80;51.46
70336;SHT31;57756;47.408;18.940;2023-02-28T10:25:28;9.31;50.39
70336;SHT31;57756;47.408;18.940;2023-02-28T10:28:00;8.96;50.01
70336;SHT31;57756;47.408;18.940;2023-02-28T10:30:27;8.28;51.87
70336;SHT31;57756;47.408;18.940;2023-02-28T10:32:53;8.50;51.43
70336;SHT31;57756;47.408;18.940;2023-02-28T10:35:21;8.63;51.13
70336;SHT31;57756;47.408;18.940;2023-02-28T10:37:49;8.22;51.16
70336;SHT31;57756;47.408;18.940;2023-02-28T10:43:02;8.04;51.78
70336;SHT31;57756;47.408;18.940;2023-02-28T10:45:31;8.18;52.81
70336;SHT31;57756;47.408;18.940;2023-02-28T10:59:03;7.46;52.80
70336;SHT31;57756;47.408;18.940;2023-02-28T11:01:43;7.97;53.23
70336;SHT31;57756;47.408;18.940;2023-02-28T11:07:00;8.01;52.31
70336;SHT31;57756;47.408;18.940;2023-02-28T11:09:38;8.08;52.72
70336;SHT31;57756;47.408;18.940;2023-02-28T11:12:07;8.16;53.95
70336;SHT31;57756;47.408;18.940;2023-02-28T11:15:18;8.08;52.67
70336;SHT31;57756;47.408;18.940;2023-02-28T11:20:36;8.11;52.82
70336;SHT31;57756;47.408;18.940;2023-02-28T11:23:03;7.35;52.84
70336;SHT31;57756;47.408;18.940;2023-02-28T11:25:35;7.66;55.03
70336;SHT31;57756;47.408;18.940;2023-02-28T11:28:04;7.08;53.64
70336;SHT31;57756;47.408;18.940;2023-02-28T11:30:41;7.63;56.55
70336;SHT31;57756;47.408;18.940;2023-02-28T11:33:37;8.22;53.53
70336;SHT31;57756;47.408;18.940;2023-02-28T11:36:16;8.21;51.60
70336;SHT31;57756;47.408;18.940;2023-02-28T11:38:42;8.24;51.56
70336;SHT31;57756;47.408;18.940;2023-02-28T11:50:14;8.49;53.18
70336;SHT31;57756;47.408;18.940;2023-02-28T11:58:27;8.12;54.07
70336;SHT31;57756;47.408;18.940;2023-02-28T12:09:40;8.21;52.80
70336;SHT31;57756;47.408;18.940;2023-02-28T12:12:21;8.38;53.77
70336;SHT31;57756;47.408;18.940;2023-02-28T12:15:13;8.21;53.17
70336;SHT31;57756;47.408;18.940;2023-02-28T12:25:39;7.63;53.94
70336;SHT31;57756;47.408;18.940;2023-02-28T12:28:14;7.67;55.07
70336;SHT31;57756;47.408;18.940;2023-02-28T12:30:51;7.75;55.25
70336;SHT31;57756;47.408;18.940;2023-02-28T12:33:22;7.57;54.10
70336;SHT31;57756;47.408;18.940;2023-02-28T12:35:56;7.75;54.96
70336;SHT31;57756;47.408;18.940;2023-02-28T12:38:38;7.50;54.67
70336;SHT31;57756;47.408;18.940;2023-02-28T12:41:10;7.60;54.98
70336;SHT31;57756;47.408;18.940;2023-02-28T12:43:42;7.97;56.05
70336;SHT31;57756;47.408;18.940;2023-02-28T12:48:56;7.74;54.74
70336;SHT31;57756;47.408;18.940;2023-02-28T12:51:24;7.75;55.61
70336;SHT31;57756;47.408;18.940;2023-02-28T12:54:04;7.88;55.04
70336;SHT31;57756;47.408;18.940;2023-02-28T12:57:11;7.52;53.89
70336;SHT31;57756;47.408;18.940;2023-02-28T12:59:48;7.67;54.53
70336;SHT31;57756;47.408;18.940;2023-02-28T13:10:48;7.85;54.87
70336;SHT31;57756;47.408;18.940;2023-02-28T13:13:24;7.81;54.91
70336;SHT31;57756;47.408;18.940;2023-02-28T13:16:10;7.73;55.20
70336;SHT31;57756;47.408;18.940;2023-02-28T13:18:39;7.49;55.56
70336;SHT31;57756;47.408;18.940;2023-02-28T13:21:09;7.63;56.13
70336;SHT31;57756;47.408;18.940;2023-02-28T13:23:57;7.56;55.61
70336;SHT31;57756;47.408;18.940;2023-02-28T13:29:04;7.37;56.60
70336;SHT31;57756;47.408;18.940;2023-02-28T13:39:49;7.69;56.46
70336;SHT31;57756;47.408;18.940;2023-02-28T13:47:44;7.81;56.43
70336;SHT31;57756;47.408;18.940;2023-02-28T13:50:32;7.62;56.96
70336;SHT31;57756;47.408;18.940;2023-02-28T14:01:13;7.49;56.56
70336;SHT31;57756;47.408;18.940;2023-02-28T14:06:16;7.64;56.99
70336;SHT31;57756;47.408;18.940;2023-02-28T14:09:16;7.40;56.72
70336;SHT31;57756;47.408;18.940;2023-02-28T14:11:44;7.37;56.96
70336;SHT31;57756;47.408;18.940;2023-02-28T14:17:04;7.46;58.02
70336;SHT31;57756;47.408;18.940;2023-02-28T14:19:31;7.50;58.23
70336;SHT31;57756;47.408;18.940;2023-02-28T14:24:59;7.30;58.27
70336;SHT31;57756;47.408;18.940;2023-02-28T14:36:14;7.14;59.41
70336;SHT31;57756;47.408;18.940;2023-02-28T14:41:44;7.16;58.90
70336;SHT31;57756;47.408;18.940;2023-02-28T14:44:27;7.32;59.06
70336;SHT31;57756;47.408;18.940;2023-02-28T14:46:58;7.35;59.16
70336;SHT31;57756;47.408;18.940;2023-02-28T14:49:32;7.20;59.72
70336;SHT31;57756;47.408;18.940;2023-02-28T14:52:22;7.08;58.94
70336;SHT31;57756;47.408;18.940;2023-02-28T14:54:53;7.18;59.95
70336;SHT31;57756;47.408;18.940;2023-02-28T15:02:25;7.23;59.14
70336;SHT31;57756;47.408;18.940;2023-02-28T15:04:59;7.30;59.55
70336;SHT31;57756;47.408;18.940;2023-02-28T15:07:26;7.32;59.91
70336;SHT31;57756;47.408;18.940;2023-02-28T15:10:17;7.12;59.21
70336;SHT31;57756;47.408;18.940;2023-02-28T15:12:52;7.04;60.60
70336;SHT31;57756;47.408;18.940;2023-02-28T15:15:20;6.97;60.22
70336;SHT31;57756;47.408;18.940;2023-02-28T15:17:50;6.89;59.98
70336;SHT31;57756;47.408;18.940;2023-02-28T15:20:17;6.77;60.26
70336;SHT31;57756;47.408;18.940;2023-02-28T15:22:45;6.81;60.81
70336;SHT31;57756;47.408;18.940;2023-02-28T15:25:15;6.88;61.25
70336;SHT31;57756;47.408;18.940;2023-02-28T15:27:46;6.87;60.55
70336;SHT31;57756;47.408;18.940;2023-02-28T15:30:20;6.76;60.53
70336;SHT31;57756;47.408;18.940;2023-02-28T15:33:03;6.77;60.51
70336;SHT31;57756;47.408;18.940;2023-02-28T15:35:31;6.66;60.49
70336;SHT31;57756;47.408;18.940;2023-02-28T15:40:58;6.66;61.50
70336;SHT31;57756;47.408;18.940;2023-02-28T15:43:25;6.58;61.47
70336;SHT31;57756;47.408;18.940;2023-02-28T15:46:12;6.64;61.25
70336;SHT31;57756;47.408;18.940;2023-02-28T15:48:51;6.54;62.94
70336;SHT31;57756;47.408;18.940;2023-02-28T15:51:19;6.64;62.73
70336;SHT31;57756;47.408;18.940;2023-02-28T15:53:51;6.36;63.45
70336;SHT31;57756;47.408;18.940;2023-02-28T15:56:34;6.32;63.57
70336;SHT31;57756;47.408;18.940;2023-02-28T15:59:03;6.25;63.81
70336;SHT31;57756;47.408;18.940;2023-02-28T16:01:32;6.15;64.10
70336;SHT31;57756;47.408;18.940;2023-02-28T16:04:02;6.11;64.22
70336;SHT31;57756;47.408;18.940;2023-02-28T16:06:42;6.11;64.50
70336;SHT31;57756;47.408;18.940;2023-02-28T16:09:16;5.99;64.72
70336;SHT31;57756;47.408;18.940;2023-02-28T16:11:47;5.98;64.62
70336;SHT31;57756;47.408;18.940;2023-02-28T16:14:18;5.91;64.82
70336;SHT31;57756;47.408;18.940;2023-02-28T16:16:47;5.78;65.18
70336;SHT31;57756;47.408;18.940;2023-02-28T16:19:14;5.77;65.72
70336;SHT31;57756;47.408;18.940;2023-02-28T16:21:39;5.81;65.37
70336;SHT31;57756;47.408;18.940;2023-02-28T16:24:06;5.71;65.60
70336;SHT31;57756;47.408;18.940;2023-02-28T16:26:31;5.74;65.23
70336;SHT31;57756;47.408;18.940;2023-02-28T16:29:00;5.61;66.01
70336;SHT31;57756;47.408;18.940;2023-02-28T16:31:27;5.71;64.99
70336;SHT31;57756;47.408;18.940;2023-02-28T16:33:52;5.70;65.09
70336;SHT31;57756;47.408;18.940;2023-02-28T16:36:23;5.58;65.59
70336;SHT31;57756;47.408;18.940;2023-02-28T16:38:51;5.51;65.76
70336;SHT31;57756;47.408;18.940;2023-02-28T16:41:35;5.43;66.86
70336;SHT31;57756;47.408;18.940;2023-02-28T16:44:00;5.50;66.53
70336;SHT31;57756;47.408;18.940;2023-02-28T16:46:44;5.42;66.99
70336;SHT31;57756;47.408;18.940;2023-02-28T16:49:13;5.46;67.35
70336;SHT31;57756;47.408;18.940;2023-02-28T16:51:39;5.42;67.13
70336;SHT31;57756;47.408;18.940;2023-02-28T16:54:04;5.43;66.88
70336;SHT31;57756;47.408;18.940;2023-02-28T16:56:30;5.37;67.04
70336;SHT31;57756;47.408;18.940;2023-02-28T16:58:59;5.51;67.08
70336;SHT31;57756;47.408;18.940;2023-02-28T17:01:25;5.48;66.99
70336;SHT31;57756;47.408;18.940;2023-02-28T17:03:52;5.51;66.97
70336;SHT31;57756;47.408;18.940;2023-02-28T17:06:26;5.51;67.19
70336;SHT31;57756;47.408;18.940;2023-02-28T17:08:53;5.36;67.79
70336;SHT31;57756;47.408;18.940;2023-02-28T17:11:19;5.48;67.38
70336;SHT31;57756;47.408;18.940;2023-02-28T17:13:45;5.40;68.05
70336;SHT31;57756;47.408;18.940;2023-02-28T17:16:29;5.33;68.17
70336;SHT31;57756;47.408;18.940;2023-02-28T17:19:01;5.36;68.19
70336;SHT31;57756;47.408;18.940;2023-02-28T17:21:28;5.27;69.02
70336;SHT31;57756;47.408;18.940;2023-02-28T17:23:53;5.27;68.85
70336;SHT31;57756;47.408;18.940;2023-02-28T17:26:20;5.34;68.86
70336;SHT31;57756;47.408;18.940;2023-02-28T17:28:47;5.26;69.14
70336;SHT31;57756;47.408;18.940;2023-02-28T17:31:13;5.20;69.46
70336;SHT31;57756;47.408;18.940;2023-02-28T17:33:39;5.23;69.42
70336;SHT31;57756;47.408;18.940;2023-02-28T17:36:05;5.25;69.92
70336;SHT31;57756;47.408;18.940;2023-02-28T17:38:30;5.22;69.58
70336;SHT31;57756;47.408;18.940;2023-02-28T17:40:56;5.20;69.60
70336;SHT31;57756;47.408;18.940;2023-02-28T17:43:26;5.19;70.42
70336;SHT31;57756;47.408;18.940;2023-02-28T17:45:52;5.22;69.92
70336;SHT31;57756;47.408;18.940;2023-02-28T17:48:18;5.13;70.43
70336;SHT31;57756;47.408;18.940;2023-02-28T17:50:43;5.11;70.88
70336;SHT31;57756;47.408;18.940;2023-02-28T17:53:09;5.05;71.24
70336;SHT31;57756;47.408;18.940;2023-02-28T17:55:35;5.09;71.24
70336;SHT31;57756;47.408;18.940;2023-02-28T17:58:01;5.12;70.79
70336;SHT31;57756;47.408;18.940;2023-02-28T18:00:28;5.09;71.26
70336;SHT31;57756;47.408;18.940;2023-02-28T18:02:53;5.05;71.44
70336;SHT31;57756;47.408;18.940;2023-02-28T18:05:19;5.08;71.33
70336;SHT31;57756;47.408;18.940;2023-02-28T18:07:44;5.06;71.63
70336;SHT31;57756;47.408;18.940;2023-02-28T18:10:16;5.06;71.57
70336;SHT31;57756;47.408;18.940;2023-02-28T18:12:48;5.05;71.28
70336;SHT31;57756;47.408;18.940;2023-02-28T18:15:14;5.05;71.24
70336;SHT31;57756;47.408;18.940;2023-02-28T18:17:41;5.04;71.54
70336;SHT31;57756;47.408;18.940;2023-02-28T18:20:07;5.00;71.81
70336;SHT31;57756;47.408;18.940;2023-02-28T18:22:34;4.98;71.62
70336;SHT31;57756;47.408;18.940;2023-02-28T18:25:01;4.93;71.82
70336;SHT31;57756;47.408;18.940;2023-02-28T18:27:27;4.89;71.64
70336;SHT31;57756;47.408;18.940;2023-02-28T18:29:52;4.91;71.38